Time;durP1;ratioP1;P1;durP2;ratioP2;P2;SDS_P1;SDS_P2;PMS_P1;PMS_P2;Temp;Humidity;BMP_temperature;BMP_pressure;BME280_temperature;BME280_humidity;BME280_pressure;Samples;Min_cycle;Max_cycle;Signal;HPM_P1;HPM_P2
2023/07/07 00:01:09;;;;;;;0.00;0.00;;;12.40;99.90;;;;;;5010226;28;20383;-70
2023/07/07 00:03:35;;;;;;;0.05;0.00;;;12.40;99.90;;;;;;4995393;28;20072;-70
2023/07/07 00:06:01;;;;;;;0.20;0.00;;;12.40;99.90;;;;;;5010828;28;20117;-71
2023/07/07 00:08:27;;;;;;;0.15;0.00;;;12.30;99.90;;;;;;5008471;28;20047;-71
2023/07/07 00:10:54;;;;;;;0.00;0.00;;;12.30;99.90;;;;;;5007686;28;20479;-71
2023/07/07 00:13:20;;;;;;;0.10;0.00;;;12.30;99.90;;;;;;4994091;28;20034;-71
2023/07/07 00:15:46;;;;;;;0.20;0.10;;;12.30;99.90;;;;;;5003465;28;20037;-71
2023/07/07 00:18:14;;;;;;;0.10;0.00;;;12.30;99.90;;;;;;5011337;28;20047;-71
2023/07/07 00:20:41;;;;;;;0.20;0.00;;;12.20;99.90;;;;;;5003017;28;20112;-71
2023/07/07 00:23:07;;;;;;;0.10;0.10;;;12.20;99.90;;;;;;5020963;28;20069;-71
2023/07/07 00:25:32;;;;;;;0.28;0.10;;;12.20;99.90;;;;;;5002296;28;20096;-71
2023/07/07 00:27:58;;;;;;;0.82;0.10;;;12.20;99.90;;;;;;5008392;28;20063;-71
2023/07/07 00:30:24;;;;;;;0.10;0.10;;;12.20;99.90;;;;;;5002136;28;20050;-71
2023/07/07 00:32:50;;;;;;;0.10;0.00;;;12.10;99.90;;;;;;5002253;28;20076;-71
2023/07/07 00:35:15;;;;;;;0.30;0.20;;;12.10;99.90;;;;;;5007480;28;20084;-71
2023/07/07 00:37:43;;;;;;;0.20;0.10;;;12.10;99.90;;;;;;5006786;28;20042;-71
2023/07/07 00:40:10;;;;;;;0.20;0.00;;;12.10;99.90;;;;;;5006391;28;20469;-71
2023/07/07 00:42:36;;;;;;;0.00;0.00;;;12.10;99.90;;;;;;5001651;28;20383;-71
2023/07/07 00:45:01;;;;;;;0.00;0.00;;;12.10;99.90;;;;;;5004583;28;20046;-71
2023/07/07 00:47:27;;;;;;;0.08;0.05;;;12.10;99.90;;;;;;5013125;28;20537;-71
2023/07/07 00:49:53;;;;;;;0.20;0.10;;;12.00;99.90;;;;;;5007636;28;20517;-71
2023/07/07 00:52:19;;;;;;;0.25;0.10;;;12.00;99.90;;;;;;4998500;28;20112;-71
2023/07/07 00:54:44;;;;;;;0.40;0.10;;;12.00;99.90;;;;;;5005166;28;20050;-71
2023/07/07 00:57:10;;;;;;;0.20;0.03;;;12.00;99.90;;;;;;5005282;28;20038;-71
2023/07/07 00:59:39;;;;;;;0.10;0.03;;;12.00;99.90;;;;;;5007254;28;20057;-71
2023/07/07 01:02:13;;;;;;;0.20;0.10;;;11.90;99.90;;;;;;5001596;28;20121;-71
2023/07/07 01:04:42;;;;;;;0.10;0.08;;;11.90;99.90;;;;;;5006353;28;20045;-72
2023/07/07 01:07:20;;;;;;;0.57;0.10;;;11.90;99.90;;;;;;5002326;28;20046;-70
2023/07/07 01:09:45;;;;;;;0.22;0.10;;;12.00;99.90;;;;;;5002381;28;20386;-71
2023/07/07 01:12:13;;;;;;;0.82;0.00;;;12.00;99.90;;;;;;5002221;28;20047;-71
2023/07/07 01:14:41;;;;;;;0.32;0.15;;;12.00;99.90;;;;;;5002348;28;20035;-71
2023/07/07 01:17:38;;;;;;;0.00;0.00;;;12.00;99.90;;;;;;5003164;28;20489;-71
2023/07/07 01:20:25;;;;;;;0.40;0.28;;;11.90;99.90;;;;;;5004127;28;20053;-72
2023/07/07 01:23:15;;;;;;;0.00;0.00;;;11.90;99.90;;;;;;5009164;28;20033;-72
2023/07/07 01:26:14;;;;;;;0.30;0.20;;;11.90;99.90;;;;;;5006704;28;20045;-71
2023/07/07 01:29:38;;;;;;;0.38;0.28;;;11.90;99.90;;;;;;4999497;28;20066;-71
2023/07/07 01:32:34;;;;;;;0.10;0.00;;;11.90;99.90;;;;;;4990632;28;20128;-71
2023/07/07 01:35:07;;;;;;;0.28;0.00;;;12.00;99.90;;;;;;4994012;28;20093;-71
2023/07/07 01:37:33;;;;;;;0.57;0.10;;;11.90;99.90;;;;;;5000182;28;20180;-71
2023/07/07 01:39:59;;;;;;;1.23;0.43;;;11.90;99.90;;;;;;5002443;28;20496;-70
2023/07/07 01:42:36;;;;;;;0.10;0.10;;;11.90;99.90;;;;;;5002300;28;20046;-71
2023/07/07 01:45:12;;;;;;;0.45;0.20;;;11.90;99.90;;;;;;5004120;28;20064;-70
2023/07/07 01:47:39;;;;;;;0.30;0.20;;;11.90;99.90;;;;;;5000107;28;20502;-71
2023/07/07 01:50:15;;;;;;;0.68;0.32;;;11.90;99.90;;;;;;5012652;28;20030;-70
2023/07/07 01:52:53;;;;;;;0.20;0.10;;;11.90;99.90;;;;;;5003652;28;20457;-71
2023/07/07 01:55:30;;;;;;;0.68;0.25;;;11.90;99.90;;;;;;5004389;28;20046;-71
2023/07/07 01:57:59;;;;;;;0.63;0.20;;;11.90;99.90;;;;;;5001384;28;20570;-70
2023/07/07 02:00:27;;;;;;;0.40;0.20;;;11.90;99.90;;;;;;5003469;28;20041;-71
2023/07/07 02:02:56;;;;;;;0.82;0.28;;;11.90;99.90;;;;;;5008056;28;20069;-71
2023/07/07 02:05:22;;;;;;;0.25;0.20;;;11.90;99.90;;;;;;5005054;28;20038;-71
2023/07/07 02:07:47;;;;;;;0.35;0.25;;;11.90;99.90;;;;;;4992679;28;20359;-70
2023/07/07 02:10:13;;;;;;;0.65;0.32;;;12.00;99.90;;;;;;5003610;28;20040;-70
2023/07/07 02:12:39;;;;;;;1.63;0.60;;;11.90;99.90;;;;;;5005178;28;20034;-71
2023/07/07 02:15:05;;;;;;;0.52;0.30;;;11.90;99.90;;;;;;5001269;28;20450;-70
2023/07/07 02:17:31;;;;;;;1.08;0.32;;;11.90;99.90;;;;;;5000764;28;20037;-71
2023/07/07 02:19:57;;;;;;;2.03;0.50;;;11.90;99.90;;;;;;4987266;28;20049;-70
2023/07/07 02:22:22;;;;;;;2.33;0.50;;;11.90;99.90;;;;;;5005440;28;20041;-70
2023/07/07 02:24:48;;;;;;;1.25;0.60;;;11.90;99.90;;;;;;5002958;28;20471;-71
2023/07/07 02:27:14;;;;;;;1.05;0.47;;;11.90;99.90;;;;;;5004353;28;20693;-70
2023/07/07 02:29:40;;;;;;;1.10;0.30;;;11.90;99.90;;;;;;5006053;28;20516;-70
2023/07/07 02:32:07;;;;;;;0.88;0.40;;;11.90;99.90;;;;;;5006425;28;20061;-71
2023/07/07 02:34:33;;;;;;;0.98;0.38;;;11.90;99.90;;;;;;5004440;28;20038;-70
2023/07/07 02:36:59;;;;;;;2.33;0.30;;;11.90;99.90;;;;;;4998361;28;20309;-71
2023/07/07 02:39:25;;;;;;;0.60;0.20;;;11.90;99.90;;;;;;5006825;28;20162;-71
2023/07/07 02:41:51;;;;;;;1.65;0.63;;;11.90;99.90;;;;;;5000900;28;20053;-71
2023/07/07 02:44:17;;;;;;;0.30;0.20;;;11.90;99.90;;;;;;5003382;28;20510;-70
2023/07/07 02:46:44;;;;;;;0.32;0.20;;;11.90;99.90;;;;;;4999775;28;20129;-70
2023/07/07 02:49:10;;;;;;;1.38;0.45;;;11.90;99.90;;;;;;5010487;28;20048;-70
2023/07/07 02:51:36;;;;;;;0.85;0.40;;;11.90;99.90;;;;;;5007753;28;20030;-71
2023/07/07 02:54:02;;;;;;;1.38;0.65;;;11.80;99.90;;;;;;5006095;28;20577;-70
2023/07/07 02:56:27;;;;;;;1.05;0.60;;;11.80;99.90;;;;;;5008108;28;20030;-71
2023/07/07 02:58:53;;;;;;;1.65;0.60;;;11.80;99.90;;;;;;5003752;28;20255;-70
2023/07/07 03:01:20;;;;;;;1.52;0.90;;;11.80;99.90;;;;;;5007033;28;20482;-71
2023/07/07 03:03:50;;;;;;;1.25;0.70;;;11.80;99.90;;;;;;5004773;28;20046;-71
2023/07/07 03:06:20;;;;;;;0.95;0.52;;;11.80;99.90;;;;;;5006467;28;20034;-70
2023/07/07 03:08:46;;;;;;;0.75;0.40;;;11.70;99.90;;;;;;5004689;28;20131;-70
2023/07/07 03:11:14;;;;;;;1.20;0.80;;;11.70;99.90;;;;;;5004890;28;20470;-71
2023/07/07 03:13:40;;;;;;;1.23;0.68;;;11.80;99.90;;;;;;5010976;28;20061;-70
2023/07/07 03:16:20;;;;;;;1.80;0.80;;;11.80;99.90;;;;;;5004814;28;20034;-69
2023/07/07 03:18:51;;;;;;;1.25;0.60;;;11.80;99.90;;;;;;5010211;28;20053;-70
2023/07/07 03:21:18;;;;;;;1.13;0.60;;;11.90;99.90;;;;;;5004258;28;20069;-70
2023/07/07 03:23:45;;;;;;;1.38;0.50;;;11.80;99.90;;;;;;5002937;28;20061;-70
2023/07/07 03:26:15;;;;;;;0.93;0.55;;;11.80;99.90;;;;;;5004070;28;20049;-70
2023/07/07 03:28:42;;;;;;;1.10;0.50;;;11.90;99.90;;;;;;5011835;28;20042;-69
2023/07/07 03:31:23;;;;;;;0.50;0.35;;;11.90;99.90;;;;;;5007249;28;20030;-70
2023/07/07 03:33:52;;;;;;;1.02;0.47;;;12.00;99.90;;;;;;5013499;28;20042;-70
2023/07/07 03:36:20;;;;;;;1.70;0.60;;;12.10;99.90;;;;;;5008690;28;20096;-66
2023/07/07 03:38:46;;;;;;;1.20;0.73;;;12.10;99.90;;;;;;5004251;28;20498;-66
2023/07/07 03:41:15;;;;;;;1.65;0.90;;;12.10;99.90;;;;;;5007274;28;20109;-66
2023/07/07 03:43:44;;;;;;;1.17;0.82;;;12.10;99.90;;;;;;4995194;28;20038;-66
2023/07/07 03:46:11;;;;;;;1.27;0.50;;;12.10;99.90;;;;;;5005413;28;20042;-66
2023/07/07 03:48:37;;;;;;;1.30;0.70;;;12.20;99.90;;;;;;5004967;28;20673;-66
2023/07/07 03:51:04;;;;;;;0.95;0.47;;;12.20;99.90;;;;;;5007538;28;20042;-66
2023/07/07 03:53:31;;;;;;;1.60;0.80;;;12.30;99.90;;;;;;5010206;28;20046;-66
2023/07/07 03:55:57;;;;;;;1.90;0.75;;;12.30;99.90;;;;;;4990122;28;20085;-67
2023/07/07 03:58:25;;;;;;;1.85;1.00;;;12.40;99.90;;;;;;4999246;28;20053;-67
2023/07/07 04:00:51;;;;;;;0.70;0.40;;;12.40;99.90;;;;;;5003753;28;20958;-66
2023/07/07 04:03:17;;;;;;;1.95;0.90;;;12.40;99.90;;;;;;5004363;28;20038;-66
2023/07/07 04:05:45;;;;;;;2.65;0.82;;;12.50;99.90;;;;;;5005993;28;20065;-65
2023/07/07 04:08:10;;;;;;;1.15;0.65;;;12.50;99.90;;;;;;4999364;28;20047;-67
2023/07/07 04:10:38;;;;;;;1.15;0.55;;;12.50;99.90;;;;;;5001777;28;20053;-66
2023/07/07 04:13:04;;;;;;;1.45;0.98;;;12.50;99.90;;;;;;4999785;28;20045;-67
2023/07/07 04:15:30;;;;;;;1.17;0.70;;;12.60;99.90;;;;;;5004580;28;20488;-66
2023/07/07 04:17:55;;;;;;;3.28;1.13;;;12.70;99.90;;;;;;5004218;28;20614;-66
2023/07/07 04:20:21;;;;;;;4.20;1.33;;;12.70;99.90;;;;;;5005757;28;20133;-66
2023/07/07 04:22:47;;;;;;;2.17;0.80;;;12.80;99.90;;;;;;4995708;28;20463;-66
2023/07/07 04:25:15;;;;;;;1.85;1.23;;;12.80;99.90;;;;;;5005029;28;20045;-67
2023/07/07 04:27:42;;;;;;;1.67;1.05;;;12.90;99.90;;;;;;5003163;28;20506;-67
2023/07/07 04:30:09;;;;;;;1.20;0.93;;;13.00;99.90;;;;;;5009356;28;20143;-66
2023/07/07 04:32:36;;;;;;;0.95;0.60;;;13.10;99.90;;;;;;4998046;28;20047;-67
2023/07/07 04:35:03;;;;;;;1.63;0.57;;;13.20;99.90;;;;;;5004880;28;20030;-67
2023/07/07 04:37:32;;;;;;;0.40;0.25;;;13.30;99.90;;;;;;5005766;28;20049;-66
2023/07/07 04:39:58;;;;;;;1.23;0.35;;;13.40;99.90;;;;;;5005450;28;20121;-66
2023/07/07 04:42:24;;;;;;;1.52;0.40;;;13.50;99.90;;;;;;4998189;28;20664;-66
2023/07/07 04:44:50;;;;;;;0.30;0.20;;;13.60;99.90;;;;;;5003817;28;20042;-66
2023/07/07 04:47:15;;;;;;;1.80;0.60;;;13.60;99.90;;;;;;5005506;28;20038;-66
2023/07/07 04:49:41;;;;;;;0.85;0.47;;;13.70;99.90;;;;;;5004835;28;20034;-67
2023/07/07 04:52:07;;;;;;;0.68;0.35;;;13.80;99.90;;;;;;4993413;28;20528;-66
2023/07/07 04:54:35;;;;;;;1.25;0.32;;;14.00;99.90;;;;;;5003798;28;20509;-66
2023/07/07 04:57:03;;;;;;;0.35;0.20;;;14.10;99.90;;;;;;5006017;28;20053;-67
2023/07/07 04:59:30;;;;;;;1.23;0.60;;;14.20;99.90;;;;;;5010903;28;20042;-66
2023/07/07 05:01:57;;;;;;;1.38;0.45;;;14.50;99.90;;;;;;4998215;28;20049;-66
2023/07/07 05:04:22;;;;;;;0.35;0.20;;;15.00;99.90;;;;;;5003444;28;20377;-66
2023/07/07 05:06:48;;;;;;;1.10;0.50;;;15.60;99.90;;;;;;4997348;28;20045;-67
2023/07/07 05:09:16;;;;;;;1.00;0.57;;;16.30;99.90;;;;;;4994652;28;20565;-67
2023/07/07 05:11:41;;;;;;;0.88;0.25;;;16.70;99.90;;;;;;5002482;28;20118;-66
2023/07/07 05:14:07;;;;;;;0.90;0.52;;;16.90;99.90;;;;;;5003812;28;20117;-66
2023/07/07 05:16:36;;;;;;;0.55;0.55;;;16.80;99.90;;;;;;5007121;28;20120;-67
2023/07/07 05:19:02;;;;;;;1.83;0.82;;;17.10;99.90;;;;;;5005365;28;20050;-66
2023/07/07 05:21:28;;;;;;;1.85;0.70;;;17.50;99.90;;;;;;5002006;28;20064;-67
2023/07/07 05:23:54;;;;;;;1.67;0.90;;;17.60;99.90;;;;;;5003589;28;20088;-67
2023/07/07 05:26:22;;;;;;;0.95;0.40;;;17.50;99.90;;;;;;4999119;28;20070;-68
2023/07/07 05:28:50;;;;;;;1.05;0.47;;;17.20;99.90;;;;;;5002320;28;20053;-67
2023/07/07 05:31:15;;;;;;;1.27;0.60;;;17.00;99.90;;;;;;5000000;28;20048;-66
2023/07/07 05:33:41;;;;;;;1.00;0.65;;;16.90;99.90;;;;;;5004590;28;20038;-66
2023/07/07 05:36:11;;;;;;;0.95;0.55;;;16.70;99.90;;;;;;4998323;28;20038;-66
2023/07/07 05:38:41;;;;;;;1.50;0.50;;;16.70;99.90;;;;;;4998829;28;20037;-67
2023/07/07 05:41:07;;;;;;;2.05;0.77;;;16.70;99.90;;;;;;5003384;28;20082;-67
2023/07/07 05:43:35;;;;;;;2.15;0.93;;;16.80;99.90;;;;;;5001984;28;20371;-66
2023/07/07 05:46:11;;;;;;;1.17;0.50;;;16.80;99.90;;;;;;5005361;28;20072;-66
2023/07/07 05:48:37;;;;;;;1.60;0.65;;;16.80;99.90;;;;;;4990781;28;20393;-67
2023/07/07 05:51:05;;;;;;;2.17;0.93;;;16.90;99.90;;;;;;5006664;28;20034;-66
2023/07/07 05:53:30;;;;;;;1.92;0.88;;;17.00;99.90;;;;;;5005760;28;20053;-67
2023/07/07 05:56:03;;;;;;;4.70;0.63;;;17.10;99.90;;;;;;5002208;28;20114;-67
2023/07/07 05:58:30;;;;;;;3.63;0.85;;;17.20;99.90;;;;;;5006222;28;20052;-68
2023/07/07 06:00:56;;;;;;;1.65;0.73;;;17.30;99.90;;;;;;5007429;28;20059;-67
2023/07/07 06:03:21;;;;;;;1.42;0.60;;;17.40;99.90;;;;;;5006969;28;20510;-66
2023/07/07 06:05:47;;;;;;;1.13;0.50;;;17.40;99.90;;;;;;5001787;28;20068;-68
2023/07/07 06:08:13;;;;;;;0.95;0.60;;;17.60;99.90;;;;;;5005116;28;20060;-67
2023/07/07 06:10:39;;;;;;;1.48;0.47;;;17.60;99.90;;;;;;5005540;28;20041;-66
2023/07/07 06:13:04;;;;;;;2.17;0.70;;;17.70;99.90;;;;;;5003842;28;20154;-66
2023/07/07 06:15:31;;;;;;;1.38;0.75;;;17.90;99.90;;;;;;5000375;28;20042;-67
2023/07/07 06:17:57;;;;;;;1.65;0.95;;;18.00;99.90;;;;;;5004264;28;20096;-67
2023/07/07 06:20:23;;;;;;;1.13;0.50;;;18.10;99.90;;;;;;5003366;28;20143;-67
2023/07/07 06:22:48;;;;;;;2.22;0.60;;;18.20;99.90;;;;;;4983914;28;20042;-66
2023/07/07 06:25:15;;;;;;;0.30;0.25;;;18.30;99.90;;;;;;4998718;28;20228;-67
2023/07/07 06:27:40;;;;;;;0.20;0.10;;;18.40;99.90;;;;;;5005442;28;20049;-67
2023/07/07 06:30:07;;;;;;;0.93;0.35;;;18.60;99.90;;;;;;5003902;28;20113;-67
2023/07/07 06:32:32;;;;;;;0.40;0.30;;;18.70;99.90;;;;;;4997284;28;20471;-67
2023/07/07 06:34:58;;;;;;;0.50;0.30;;;18.80;99.90;;;;;;4995061;28;20069;-66
2023/07/07 06:37:24;;;;;;;0.70;0.57;;;18.90;99.90;;;;;;5000551;28;20053;-67
2023/07/07 06:39:49;;;;;;;0.45;0.32;;;19.00;99.90;;;;;;5002407;28;20125;-66
2023/07/07 06:42:16;;;;;;;0.30;0.15;;;19.10;99.90;;;;;;4999244;28;20037;-66
2023/07/07 06:44:42;;;;;;;0.95;0.47;;;19.20;99.90;;;;;;4998746;28;20045;-67
2023/07/07 06:47:16;;;;;;;0.30;0.20;;;19.30;99.90;;;;;;5002956;28;20434;-67
2023/07/07 06:49:43;;;;;;;0.70;0.38;;;19.40;99.90;;;;;;5003635;28;20045;-67
2023/07/07 06:52:08;;;;;;;0.75;0.40;;;19.50;99.90;;;;;;4998333;28;20042;-67
2023/07/07 06:54:35;;;;;;;0.45;0.38;;;19.60;99.90;;;;;;4998840;28;20402;-67
2023/07/07 06:57:00;;;;;;;0.60;0.40;;;19.80;99.90;;;;;;5003536;28;20052;-68
2023/07/07 06:59:26;;;;;;;0.28;0.10;;;19.90;99.90;;;;;;5004157;28;20038;-67
2023/07/07 07:01:52;;;;;;;3.63;0.20;;;19.90;99.90;;;;;;5003521;28;20414;-66
2023/07/07 07:04:18;;;;;;;0.22;0.10;;;20.10;99.90;;;;;;5004448;28;20485;-67
2023/07/07 07:06:43;;;;;;;0.75;0.43;;;20.20;99.90;;;;;;5006054;28;20536;-67
2023/07/07 07:09:10;;;;;;;0.35;0.20;;;20.30;99.90;;;;;;5003524;28;20049;-68
2023/07/07 07:11:35;;;;;;;0.20;0.10;;;20.50;99.90;;;;;;5002005;28;20056;-67
2023/07/07 07:14:01;;;;;;;0.35;0.22;;;20.60;99.90;;;;;;5005773;28;20533;-68
2023/07/07 07:16:27;;;;;;;0.40;0.20;;;20.70;99.90;;;;;;5003067;28;20038;-68
2023/07/07 07:18:52;;;;;;;0.30;0.20;;;20.80;99.90;;;;;;5004897;28;20469;-67
2023/07/07 07:21:18;;;;;;;1.08;0.40;;;21.00;99.90;;;;;;5000860;28;20049;-67
2023/07/07 07:23:44;;;;;;;0.40;0.28;;;21.10;99.90;;;;;;5003185;28;20053;-66
2023/07/07 07:26:10;;;;;;;1.33;0.40;;;21.20;99.90;;;;;;5001911;28;20100;-66
2023/07/07 07:28:35;;;;;;;0.40;0.28;;;21.30;99.90;;;;;;5005470;28;20383;-66
2023/07/07 07:31:01;;;;;;;0.52;0.20;;;21.40;99.90;;;;;;4999782;28;20049;-67
2023/07/07 07:33:27;;;;;;;0.22;0.20;;;21.50;99.90;;;;;;5005825;28;20104;-66
2023/07/07 07:35:53;;;;;;;2.97;0.50;;;21.50;99.90;;;;;;5004090;28;20061;-68
2023/07/07 07:38:22;;;;;;;0.70;0.35;;;21.60;99.90;;;;;;5003373;28;20534;-67
2023/07/07 07:40:51;;;;;;;1.23;0.50;;;21.70;99.90;;;;;;5003879;28;20040;-68
2023/07/07 07:43:17;;;;;;;0.95;0.20;;;21.80;99.90;;;;;;5010385;28;20453;-67
2023/07/07 07:45:43;;;;;;;0.20;0.08;;;22.00;99.90;;;;;;5006411;28;20043;-66
2023/07/07 07:48:09;;;;;;;0.30;0.13;;;22.10;99.90;;;;;;5005749;28;20157;-67
2023/07/07 07:50:35;;;;;;;0.38;0.13;;;22.20;99.90;;;;;;4999457;28;20101;-67
2023/07/07 07:53:00;;;;;;;0.30;0.08;;;22.40;99.90;;;;;;5002093;28;20050;-67
2023/07/07 07:55:27;;;;;;;0.38;0.17;;;22.50;99.90;;;;;;5005642;28;20127;-67
2023/07/07 07:57:53;;;;;;;0.10;0.10;;;22.60;99.90;;;;;;5004067;28;20073;-67
2023/07/07 08:00:19;;;;;;;0.57;0.20;;;22.70;99.90;;;;;;5006812;28;20319;-67
2023/07/07 08:02:46;;;;;;;0.93;0.35;;;22.80;99.90;;;;;;5000401;28;20046;-67
2023/07/07 08:05:12;;;;;;;1.52;0.30;;;22.90;99.90;;;;;;5003675;28;20042;-67
2023/07/07 08:07:38;;;;;;;0.10;0.10;;;23.00;99.90;;;;;;5005965;28;20054;-67
2023/07/07 08:10:04;;;;;;;0.10;0.10;;;23.10;99.90;;;;;;4999382;28;20034;-67
2023/07/07 08:12:30;;;;;;;0.68;0.28;;;23.20;99.90;;;;;;5002750;28;20116;-67
2023/07/07 08:14:56;;;;;;;0.10;0.00;;;23.30;99.90;;;;;;5004146;28;20192;-67
2023/07/07 08:17:22;;;;;;;0.40;0.13;;;23.40;99.90;;;;;;5000434;28;20125;-67
2023/07/07 08:19:48;;;;;;;0.13;0.10;;;23.50;99.90;;;;;;4998109;28;20041;-68
2023/07/07 08:22:20;;;;;;;0.10;0.10;;;23.50;99.90;;;;;;5000766;28;20103;-67
2023/07/07 08:24:49;;;;;;;0.57;0.30;;;23.60;99.90;;;;;;5006620;28;20486;-66
2023/07/07 08:27:15;;;;;;;0.30;0.30;;;23.70;99.90;;;;;;5001095;28;20056;-67
2023/07/07 08:29:42;;;;;;;1.65;0.32;;;23.80;99.90;;;;;;5008231;28;20049;-67
2023/07/07 08:32:10;;;;;;;0.10;0.10;;;23.90;99.90;;;;;;5004880;28;20049;-67
2023/07/07 08:34:36;;;;;;;0.85;0.10;;;24.00;99.90;;;;;;5006129;28;20497;-67
2023/07/07 08:37:02;;;;;;;0.43;0.20;;;24.20;99.90;;;;;;4999119;28;20038;-68
2023/07/07 08:39:29;;;;;;;0.40;0.20;;;24.40;99.90;;;;;;4997321;28;20671;-67
2023/07/07 08:42:11;;;;;;;0.13;0.10;;;24.40;99.90;;;;;;5006442;28;20121;-66
2023/07/07 08:44:36;;;;;;;1.08;0.00;;;24.50;99.90;;;;;;5003115;28;20116;-67
2023/07/07 08:47:23;;;;;;;0.08;0.00;;;24.60;99.90;;;;;;4999290;28;20434;-67
2023/07/07 08:49:58;;;;;;;0.05;0.05;;;24.70;99.90;;;;;;5006747;28;20175;-67
2023/07/07 08:52:50;;;;;;;0.10;0.10;;;24.90;99.90;;;;;;5004590;28;20505;-66
2023/07/07 08:55:50;;;;;;;0.77;0.47;;;25.10;91.70;;;;;;4999615;28;20042;-65
2023/07/07 08:58:35;;;;;;;0.30;0.30;;;25.50;96.50;;;;;;4998574;28;20521;-67
2023/07/07 09:01:22;;;;;;;1.00;0.00;;;25.70;97.50;;;;;;5003392;28;20037;-67
2023/07/07 09:04:25;;;;;;;0.00;0.00;;;25.80;87.30;;;;;;5002052;28;20070;-66
2023/07/07 09:07:13;;;;;;;0.13;0.00;;;26.10;90.10;;;;;;4999050;28;20076;-66
2023/07/07 09:10:00;;;;;;;0.17;0.05;;;26.20;90.60;;;;;;5002028;28;20042;-66
2023/07/07 09:12:31;;;;;;;0.30;0.10;;;26.50;91.30;;;;;;5002485;28;20050;-66
2023/07/07 09:14:59;;;;;;;0.10;0.00;;;26.60;91.10;;;;;;4999019;28;20359;-68
2023/07/07 09:17:35;;;;;;;0.10;0.05;;;26.80;91.10;;;;;;5003663;28;20057;-67
2023/07/07 09:20:05;;;;;;;0.22;0.00;;;26.90;90.00;;;;;;5005384;28;20089;-67
2023/07/07 09:22:38;;;;;;;0.10;0.10;;;27.10;84.60;;;;;;5004766;28;20089;-66
2023/07/07 09:25:19;;;;;;;0.17;0.00;;;27.20;75.90;;;;;;5007102;28;20085;-67
2023/07/07 09:27:58;;;;;;;0.00;0.00;;;27.30;82.50;;;;;;5000729;28;20052;-66
2023/07/07 09:30:24;;;;;;;0.30;0.10;;;27.30;82.00;;;;;;5005057;28;20149;-66
2023/07/07 09:32:50;;;;;;;0.65;0.38;;;27.30;77.30;;;;;;5002397;28;20437;-66
2023/07/07 09:35:18;;;;;;;0.10;0.10;;;27.20;81.20;;;;;;4995929;28;20038;-66
2023/07/07 09:38:10;;;;;;;0.32;0.00;;;27.10;80.10;;;;;;5010047;28;20460;-65
2023/07/07 09:40:50;;;;;;;0.00;0.00;;;27.00;75.60;;;;;;5000050;28;20057;-68
2023/07/07 09:43:40;;;;;;;0.10;0.03;;;26.80;76.10;;;;;;5000707;28;20046;-65
2023/07/07 09:46:21;;;;;;;0.00;0.00;;;26.60;70.30;;;;;;5007534;28;20474;-65
2023/07/07 09:49:09;;;;;;;0.00;0.00;;;26.60;68.60;;;;;;5004774;28;20078;-66
2023/07/07 09:51:52;;;;;;;0.65;0.00;;;26.70;72.60;;;;;;5003570;28;20546;-66
2023/07/07 09:54:19;;;;;;;0.15;0.00;;;26.90;74.20;;;;;;4993645;28;20051;-66
2023/07/07 09:57:26;;;;;;;0.05;0.00;;;27.00;69.30;;;;;;4999034;28;20125;-66
2023/07/07 09:59:54;;;;;;;0.00;0.00;;;27.10;64.30;;;;;;4999623;28;20054;-66
2023/07/07 10:05:30;;;;;;;;;;;27.30;70.80;;;;;;4998204;28;20136;-65
2023/07/07 10:07:58;;;;;;;0.20;0.10;;;27.50;66.40;;;;;;5000893;28;19940;-65
2023/07/07 10:10:24;;;;;;;0.17;0.15;;;27.70;70.50;;;;;;5001997;28;20047;-66
2023/07/07 10:12:50;;;;;;;0.10;0.00;;;28.00;68.30;;;;;;4994029;28;20100;-65
2023/07/07 10:15:30;;;;;;;0.85;0.00;;;28.10;69.60;;;;;;4996377;28;20562;-66
2023/07/07 10:18:03;;;;;;;0.10;0.00;;;28.10;68.20;;;;;;5005945;28;20065;-66
2023/07/07 10:20:30;;;;;;;0.00;0.00;;;28.00;59.30;;;;;;5001144;28;20054;-66
2023/07/07 10:22:56;;;;;;;0.00;0.00;;;28.10;61.30;;;;;;5005299;28;20485;-65
2023/07/07 10:25:22;;;;;;;1.00;0.10;;;28.10;63.20;;;;;;4996443;28;20169;-66
2023/07/07 10:27:54;;;;;;;0.10;0.10;;;28.20;63.30;;;;;;5006181;28;20049;-66
2023/07/07 10:30:20;;;;;;;0.10;0.00;;;28.20;58.00;;;;;;5002942;28;20050;-66
2023/07/07 10:32:47;;;;;;;0.03;0.00;;;28.20;61.80;;;;;;5000246;28;20077;-66
2023/07/07 10:35:18;;;;;;;0.10;0.03;;;28.30;62.10;;;;;;4999706;28;20112;-66
2023/07/07 10:37:45;;;;;;;0.10;0.00;;;28.50;60.40;;;;;;5001185;28;20042;-65
2023/07/07 10:40:21;;;;;;;0.05;0.00;;;28.60;61.90;;;;;;5000412;28;20042;-67
2023/07/07 10:42:53;;;;;;;0.00;0.00;;;28.60;56.00;;;;;;4994935;28;20173;-65
2023/07/07 10:45:21;;;;;;;0.10;0.05;;;28.50;58.20;;;;;;5002115;28;20042;-67
2023/07/07 10:47:46;;;;;;;0.00;0.00;;;28.70;56.70;;;;;;5004783;28;20037;-65
2023/07/07 10:50:18;;;;;;;0.00;0.00;;;28.80;60.20;;;;;;4997259;28;20052;-66
2023/07/07 10:52:48;;;;;;;0.00;0.00;;;28.80;57.20;;;;;;4996332;28;20077;-65
2023/07/07 10:55:35;;;;;;;0.10;0.10;;;28.70;52.80;;;;;;5003440;28;20058;-66
2023/07/07 10:58:29;;;;;;;0.20;0.15;;;28.70;49.50;;;;;;5000665;28;20070;-66
2023/07/07 11:01:07;;;;;;;0.00;0.00;;;28.50;51.20;;;;;;4998159;28;20056;-66
2023/07/07 11:03:57;;;;;;;0.00;0.00;;;28.60;52.10;;;;;;5003216;28;20034;-67
2023/07/07 11:06:48;;;;;;;0.03;0.00;;;28.80;55.00;;;;;;5002423;28;20493;-65
2023/07/07 11:09:55;;;;;;;0.20;0.10;;;29.00;56.30;;;;;;4996007;28;20243;-65
2023/07/07 11:12:27;;;;;;;0.08;0.00;;;29.20;48.90;;;;;;4993986;28;20053;-66
2023/07/07 11:15:18;;;;;;;0.10;0.10;;;29.40;52.60;;;;;;5001994;28;20056;-66
2023/07/07 11:18:21;;;;;;;0.15;0.00;;;29.40;53.50;;;;;;5001182;28;20137;-66
2023/07/07 11:21:17;;;;;;;0.75;0.40;;;29.70;53.90;;;;;;5009481;28;20070;-67
2023/07/07 11:23:55;;;;;;;0.35;0.20;;;29.90;51.10;;;;;;5005707;28;20042;-66
2023/07/07 11:26:53;;;;;;;0.35;0.13;;;30.00;53.10;;;;;;5001896;28;20061;-67
2023/07/07 11:29:40;;;;;;;0.20;0.10;;;30.10;48.40;;;;;;4998987;28;20398;-66
2023/07/07 11:32:30;;;;;;;0.10;0.00;;;29.90;49.20;;;;;;5002247;28;20074;-66
2023/07/07 11:35:06;;;;;;;0.10;0.10;;;29.90;45.70;;;;;;5005730;28;20041;-67
2023/07/07 11:37:53;;;;;;;0.10;0.10;;;29.70;46.20;;;;;;5009788;28;20041;-69
2023/07/07 11:40:28;;;;;;;0.25;0.08;;;29.30;44.30;;;;;;5003902;28;20466;-66
2023/07/07 11:43:13;;;;;;;0.40;0.10;;;29.20;46.30;;;;;;5005700;28;20040;-66
2023/07/07 11:46:00;;;;;;;0.52;0.08;;;29.40;50.00;;;;;;5003740;28;20053;-66
2023/07/07 11:48:37;;;;;;;0.00;0.00;;;29.80;51.80;;;;;;5005957;28;20045;-65
2023/07/07 11:51:26;;;;;;;0.10;0.00;;;30.00;47.50;;;;;;5008559;28;20081;-66
2023/07/07 11:53:58;;;;;;;0.10;0.00;;;30.20;51.80;;;;;;5003707;28;20062;-66
2023/07/07 11:57:03;;;;;;;0.10;0.00;;;30.30;50.30;;;;;;5005953;28;20072;-66
2023/07/07 11:59:40;;;;;;;0.32;0.10;;;30.50;49.70;;;;;;5000899;28;20493;-67
2023/07/07 12:02:18;;;;;;;0.20;0.10;;;30.40;47.40;;;;;;5003426;28;20359;-67
2023/07/07 12:04:46;;;;;;;0.30;0.10;;;30.30;45.10;;;;;;5001799;28;20403;-66
2023/07/07 12:07:26;;;;;;;0.00;0.00;;;30.30;47.90;;;;;;4998383;28;20042;-66
2023/07/07 12:10:19;;;;;;;0.15;0.10;;;30.40;49.00;;;;;;5000899;28;20501;-65
2023/07/07 12:12:54;;;;;;;0.65;0.10;;;30.40;48.10;;;;;;5007180;28;20147;-66
2023/07/07 12:15:30;;;;;;;0.35;0.10;;;30.60;48.00;;;;;;5006551;28;20038;-66
2023/07/07 12:18:17;;;;;;;0.40;0.20;;;30.40;48.70;;;;;;5005559;28;20041;-66
2023/07/07 12:21:05;;;;;;;0.10;0.00;;;30.20;48.60;;;;;;5004626;28;20056;-66
2023/07/07 12:23:34;;;;;;;0.00;0.00;;;30.10;47.90;;;;;;5004148;28;20120;-65
2023/07/07 12:26:13;;;;;;;0.30;0.17;;;30.00;43.60;;;;;;5002356;28;20069;-67
2023/07/07 12:28:46;;;;;;;0.22;0.10;;;29.90;45.20;;;;;;5004294;28;20073;-66
2023/07/07 12:31:12;;;;;;;0.05;0.00;;;30.00;47.80;;;;;;5003815;28;20125;-66
2023/07/07 12:33:41;;;;;;;0.20;0.05;;;30.20;46.50;;;;;;5001896;28;20126;-67
2023/07/07 12:36:11;;;;;;;0.30;0.10;;;30.00;46.20;;;;;;4997494;28;20041;-66
2023/07/07 12:38:36;;;;;;;0.05;0.00;;;29.90;45.80;;;;;;5001413;28;20132;-66
2023/07/07 12:41:17;;;;;;;0.13;0.00;;;29.80;41.80;;;;;;5004240;28;20077;-66
2023/07/07 12:44:10;;;;;;;0.20;0.10;;;29.80;45.30;;;;;;5004681;28;20045;-67
2023/07/07 12:46:37;;;;;;;0.13;0.10;;;29.70;40.90;;;;;;4996872;28;20497;-66
2023/07/07 12:49:16;;;;;;;0.08;0.00;;;29.50;43.70;;;;;;5002766;28;20041;-66
2023/07/07 12:51:42;;;;;;;0.55;0.25;;;29.60;44.30;;;;;;5002887;28;20038;-66
2023/07/07 12:54:28;;;;;;;0.08;0.00;;;29.50;42.30;;;;;;4997089;28;20410;-66
2023/07/07 12:57:03;;;;;;;0.20;0.00;;;29.50;42.10;;;;;;5005454;28;20042;-66
2023/07/07 12:59:38;;;;;;;0.00;0.00;;;29.50;42.70;;;;;;5002724;28;20049;-68
2023/07/07 13:02:29;;;;;;;0.75;0.32;;;29.50;40.60;;;;;;5005136;28;20046;-69
2023/07/07 13:05:01;;;;;;;0.15;0.10;;;29.40;42.60;;;;;;4997264;28;20045;-69
2023/07/07 13:07:32;;;;;;;0.00;0.00;;;29.50;43.90;;;;;;5005849;28;20042;-70
2023/07/07 13:10:02;;;;;;;0.20;0.00;;;29.60;44.70;;;;;;5004896;28;20768;-71
2023/07/07 13:12:46;;;;;;;0.20;0.00;;;29.70;44.40;;;;;;5002738;28;20033;-71